Time;durP1;ratioP1;P1;durP2;ratioP2;P2;SDS_P1;SDS_P2;PMS_P1;PMS_P2;Temp;Humidity;BMP_temperature;BMP_pressure;BME280_temperature;BME280_humidity;BME280_pressure;Samples;Min_cycle;Max_cycle;Signal;HPM_P1;HPM_P2
2022/03/21 00:00:43;;;;;;;3.25;1.77;;;2.70;72.00;;;;;;5133446;28;20074;-68
2022/03/21 00:03:12;;;;;;;2.50;1.50;;;2.70;72.00;;;;;;5133146;28;20083;-69
2022/03/21 00:05:38;;;;;;;3.30;1.70;;;2.80;72.10;;;;;;5113330;28;20177;-68
2022/03/21 00:08:04;;;;;;;3.22;1.50;;;2.70;72.00;;;;;;5133538;28;20071;-68
2022/03/21 00:10:33;;;;;;;3.03;1.50;;;2.70;72.20;;;;;;5132934;28;20035;-68
2022/03/21 00:13:00;;;;;;;3.45;1.67;;;2.60;72.20;;;;;;5132896;28;20055;-68
2022/03/21 00:15:27;;;;;;;3.80;2.05;;;2.70;72.30;;;;;;5113567;28;20066;-68
2022/03/21 00:17:53;;;;;;;2.72;1.42;;;2.60;72.30;;;;;;5133222;28;20550;-69
2022/03/21 00:20:19;;;;;;;3.03;1.70;;;2.60;72.30;;;;;;5133471;28;20189;-68
2022/03/21 00:22:45;;;;;;;3.40;1.80;;;2.60;72.40;;;;;;5097498;28;20050;-69
2022/03/21 00:25:11;;;;;;;3.35;1.70;;;2.50;72.50;;;;;;5132667;28;20039;-68
2022/03/21 00:27:38;;;;;;;4.10;1.80;;;2.70;72.60;;;;;;5112467;28;20043;-68
2022/03/21 00:30:05;;;;;;;3.55;1.77;;;2.50;72.60;;;;;;5133163;28;20039;-68
2022/03/21 00:32:31;;;;;;;4.05;2.05;;;2.40;72.60;;;;;;5133265;28;20466;-69
2022/03/21 00:34:57;;;;;;;3.63;1.98;;;2.50;72.80;;;;;;5133720;27;20058;-68
2022/03/21 00:37:23;;;;;;;3.70;1.95;;;2.40;72.70;;;;;;5116416;28;20479;-68
2022/03/21 00:39:51;;;;;;;3.42;1.77;;;2.40;72.90;;;;;;5136375;28;20398;-68
2022/03/21 00:42:17;;;;;;;3.35;1.67;;;2.40;73.00;;;;;;5136371;28;20050;-68
2022/03/21 00:44:43;;;;;;;5.10;2.03;;;2.40;73.00;;;;;;5136652;28;20505;-69
2022/03/21 00:47:10;;;;;;;3.95;1.88;;;2.30;73.10;;;;;;5136070;28;20039;-69
2022/03/21 00:49:36;;;;;;;3.47;1.60;;;2.30;73.10;;;;;;5136588;28;20573;-69
2022/03/21 00:52:02;;;;;;;3.10;1.73;;;2.40;73.20;;;;;;5136123;28;20225;-69
2022/03/21 00:54:28;;;;;;;3.15;1.85;;;2.30;73.10;;;;;;5116013;28;20047;-68
2022/03/21 00:56:53;;;;;;;4.43;2.20;;;2.30;73.20;;;;;;5136127;28;20035;-68
2022/03/21 00:59:19;;;;;;;3.28;1.83;;;2.30;73.20;;;;;;5117251;28;20073;-68
2022/03/21 01:01:46;;;;;;;3.97;2.10;;;2.20;73.20;;;;;;5136788;28;20036;-68
2022/03/21 01:04:12;;;;;;;2.20;1.30;;;2.20;73.30;;;;;;5136165;28;20039;-68
2022/03/21 01:06:38;;;;;;;3.15;1.60;;;2.20;73.30;;;;;;5135964;28;20042;-69
2022/03/21 01:09:04;;;;;;;3.47;1.83;;;2.10;73.40;;;;;;5135834;28;20043;-69
2022/03/21 01:11:30;;;;;;;3.00;1.70;;;2.10;73.40;;;;;;5083638;28;20043;-68
2022/03/21 01:13:56;;;;;;;3.38;1.65;;;2.10;73.50;;;;;;5136144;28;20050;-68
2022/03/21 01:16:22;;;;;;;3.90;1.80;;;2.10;73.60;;;;;;5117615;28;20410;-69
2022/03/21 01:18:47;;;;;;;4.18;2.00;;;2.10;73.60;;;;;;5135803;28;20084;-68
2022/03/21 01:21:13;;;;;;;3.65;1.73;;;2.10;73.50;;;;;;5136099;28;20130;-68
2022/03/21 01:23:39;;;;;;;2.70;1.52;;;2.10;73.50;;;;;;5136220;28;20036;-68
2022/03/21 01:26:05;;;;;;;3.40;1.92;;;2.10;73.60;;;;;;5135720;28;20195;-69
2022/03/21 01:28:31;;;;;;;2.83;1.58;;;2.00;73.70;;;;;;5115627;28;20106;-70
2022/03/21 01:30:57;;;;;;;3.75;1.73;;;2.10;73.70;;;;;;5117318;28;20051;-68
2022/03/21 01:33:24;;;;;;;3.53;1.58;;;2.00;73.80;;;;;;5136074;28;20587;-70
2022/03/21 01:35:49;;;;;;;3.55;1.92;;;2.00;73.80;;;;;;5135527;28;20482;-69
2022/03/21 01:38:15;;;;;;;3.15;1.52;;;1.90;73.80;;;;;;5135526;28;20046;-69
2022/03/21 01:40:41;;;;;;;2.85;1.73;;;1.90;73.90;;;;;;5136102;28;20040;-69
2022/03/21 01:43:11;;;;;;;3.65;1.80;;;1.80;73.90;;;;;;5135251;28;20040;-70
2022/03/21 01:45:36;;;;;;;3.15;1.75;;;1.90;74.10;;;;;;5135622;27;20049;-69
2022/03/21 01:48:03;;;;;;;3.15;1.75;;;1.80;74.10;;;;;;5135439;28;20039;-69
2022/03/21 01:50:29;;;;;;;3.42;1.80;;;1.80;74.10;;;;;;5135412;28;20473;-69
2022/03/21 01:55:43;;;;;;;3.25;1.67;;;1.90;74.10;;;;;;5135353;28;20508;-69
2022/03/21 01:55:44;;;;;;;5.15;2.55;;;1.90;74.10;;;;;;5134312;28;20494;-69
2022/03/21 01:58:14;;;;;;;4.05;1.77;;;1.90;74.10;;;;;;5115990;28;20046;-69
2022/03/21 02:00:41;;;;;;;2.80;1.70;;;1.90;74.10;;;;;;5135080;28;20371;-69
2022/03/21 02:03:07;;;;;;;2.88;1.73;;;1.90;74.10;;;;;;5134898;28;20114;-69
2022/03/21 02:05:36;;;;;;;2.60;1.50;;;1.90;74.10;;;;;;5135287;28;20054;-69
2022/03/21 02:08:01;;;;;;;3.45;2.00;;;1.90;74.10;;;;;;5135062;28;20108;-70
2022/03/21 02:10:28;;;;;;;2.85;1.70;;;1.90;74.10;;;;;;5134966;28;20050;-69
2022/03/21 02:12:54;;;;;;;2.35;1.55;;;1.80;74.20;;;;;;5135278;28;20035;-69
2022/03/21 02:15:20;;;;;;;3.80;1.63;;;1.70;74.30;;;;;;5134890;28;20049;-69
2022/03/21 02:17:47;;;;;;;2.97;1.52;;;1.70;74.40;;;;;;5116704;28;20143;-69
2022/03/21 02:20:18;;;;;;;3.28;1.67;;;1.70;74.50;;;;;;5135010;28;20047;-70
2022/03/21 02:22:56;;;;;;;3.05;1.63;;;1.70;74.50;;;;;;5134633;28;20054;-69
2022/03/21 02:25:31;;;;;;;2.55;1.38;;;1.70;74.60;;;;;;5116423;28;20039;-69
2022/03/21 02:28:00;;;;;;;1.88;1.20;;;1.60;74.60;;;;;;5134590;28;20043;-69
2022/03/21 02:30:28;;;;;;;3.15;1.60;;;1.70;74.60;;;;;;5134889;28;20529;-69
2022/03/21 02:32:56;;;;;;;2.78;1.63;;;1.70;74.60;;;;;;5115013;28;20142;-69
2022/03/21 02:35:22;;;;;;;3.13;1.60;;;1.60;74.60;;;;;;5114928;28;20451;-69
2022/03/21 02:37:48;;;;;;;4.45;2.25;;;1.50;74.60;;;;;;5116250;28;20100;-69
2022/03/21 02:40:16;;;;;;;4.18;1.85;;;1.60;74.80;;;;;;5134338;28;20443;-69
2022/03/21 02:42:42;;;;;;;3.00;1.75;;;1.50;74.80;;;;;;5114989;28;20134;-69
2022/03/21 02:45:09;;;;;;;4.38;2.00;;;1.60;74.70;;;;;;5134515;28;20043;-69
2022/03/21 02:47:34;;;;;;;2.95;1.70;;;1.60;74.70;;;;;;5115977;28;20045;-69
2022/03/21 02:50:02;;;;;;;3.08;1.73;;;1.60;74.70;;;;;;5134415;28;20043;-69
2022/03/21 02:52:29;;;;;;;2.35;1.40;;;1.60;74.70;;;;;;5134885;28;20534;-69
2022/03/21 02:54:56;;;;;;;2.55;1.50;;;1.60;74.80;;;;;;5134322;28;20118;-69
2022/03/21 02:57:22;;;;;;;2.58;1.45;;;1.60;74.80;;;;;;5133768;27;20039;-69
2022/03/21 02:59:47;;;;;;;2.88;1.50;;;1.50;74.90;;;;;;5134139;28;20039;-70
2022/03/21 03:02:13;;;;;;;2.85;1.65;;;1.50;75.00;;;;;;5115717;28;20402;-69
2022/03/21 03:04:39;;;;;;;3.53;1.80;;;1.50;75.00;;;;;;5115842;28;20091;-67
2022/03/21 03:07:05;;;;;;;2.17;1.30;;;1.50;75.00;;;;;;5134039;28;20039;-67
2022/03/21 03:09:31;;;;;;;3.25;1.63;;;1.50;75.00;;;;;;5116197;28;20049;-69
2022/03/21 03:11:56;;;;;;;2.78;1.50;;;1.40;75.00;;;;;;5134329;28;20058;-67
2022/03/21 03:14:22;;;;;;;3.95;1.58;;;1.40;75.00;;;;;;5133881;28;20031;-67
2022/03/21 03:16:48;;;;;;;2.80;1.48;;;1.50;75.10;;;;;;5133725;28;20046;-69
2022/03/21 03:19:14;;;;;;;3.28;1.52;;;1.40;75.10;;;;;;5133777;28;20087;-69
2022/03/21 03:21:44;;;;;;;2.88;1.60;;;1.50;75.20;;;;;;5134116;28;20050;-68
2022/03/21 03:24:11;;;;;;;3.30;1.70;;;1.60;75.20;;;;;;5116551;28;20428;-69
2022/03/21 03:26:37;;;;;;;2.83;1.40;;;1.70;75.20;;;;;;5115115;28;20043;-67
2022/03/21 03:29:03;;;;;;;3.05;1.52;;;1.70;75.10;;;;;;5133741;28;20035;-69
2022/03/21 03:31:29;;;;;;;3.33;2.00;;;1.70;75.10;;;;;;5133814;28;20109;-67
2022/03/21 03:33:55;;;;;;;4.10;1.98;;;1.60;75.00;;;;;;5133863;28;20044;-67
2022/03/21 03:36:21;;;;;;;2.97;1.50;;;1.70;75.10;;;;;;5134123;28;20047;-69
2022/03/21 03:38:48;;;;;;;2.72;1.48;;;1.70;75.00;;;;;;5133560;28;20035;-69
2022/03/21 03:41:15;;;;;;;2.65;1.50;;;1.70;75.10;;;;;;5133654;28;20035;-69
2022/03/21 03:43:43;;;;;;;3.53;1.60;;;1.70;75.10;;;;;;5115518;28;20053;-69
2022/03/21 03:46:09;;;;;;;2.78;1.50;;;1.70;75.20;;;;;;5133819;28;20038;-69
2022/03/21 03:48:35;;;;;;;3.33;1.70;;;1.70;75.30;;;;;;5133581;28;20039;-67
2022/03/21 03:51:03;;;;;;;2.45;1.30;;;1.70;75.40;;;;;;5133410;28;20051;-69
2022/03/21 03:53:30;;;;;;;3.13;1.75;;;1.60;75.40;;;;;;5133380;28;20493;-69
2022/03/21 03:55:55;;;;;;;2.55;1.40;;;1.60;75.40;;;;;;5133676;28;20066;-69
2022/03/21 03:58:22;;;;;;;2.30;1.30;;;1.60;75.60;;;;;;5133518;28;20039;-69
2022/03/21 04:00:49;;;;;;;2.55;1.30;;;1.60;75.70;;;;;;5133684;28;20031;-69
2022/03/21 04:05:55;;;;;;;2.28;1.38;;;1.50;75.80;;;;;;5117095;28;20085;-69
2022/03/21 04:08:21;;;;;;;2.85;1.48;;;1.60;75.70;;;;;;5133080;28;20070;-69
2022/03/21 04:10:46;;;;;;;2.72;1.30;;;1.60;75.80;;;;;;5132661;27;20043;-69
2022/03/21 04:13:12;;;;;;;2.63;1.40;;;1.60;75.80;;;;;;5133227;28;20046;-69
2022/03/21 04:15:38;;;;;;;2.65;1.35;;;1.60;75.90;;;;;;5132977;28;20050;-69
2022/03/21 04:18:05;;;;;;;1.90;1.20;;;1.50;76.00;;;;;;5133219;28;20393;-69
2022/03/21 04:20:31;;;;;;;2.38;1.38;;;1.50;76.10;;;;;;5133286;28;20086;-69
2022/03/21 04:22:58;;;;;;;2.60;1.17;;;1.40;76.10;;;;;;5133151;28;20035;-69
2022/03/21 04:25:24;;;;;;;2.10;1.20;;;1.30;76.20;;;;;;5133078;28;20050;-69
2022/03/21 04:27:50;;;;;;;2.85;1.40;;;1.30;76.30;;;;;;5133222;28;20122;-69
2022/03/21 04:30:16;;;;;;;2.03;1.30;;;1.30;76.40;;;;;;5132988;28;20161;-69
2022/03/21 04:32:43;;;;;;;1.58;1.00;;;1.30;76.50;;;;;;5132755;28;20050;-69
2022/03/21 04:35:10;;;;;;;1.83;1.00;;;1.30;76.50;;;;;;5114720;28;20074;-69
2022/03/21 04:37:36;;;;;;;2.30;1.25;;;1.30;76.50;;;;;;5132795;28;20116;-69
2022/03/21 04:40:03;;;;;;;2.30;1.10;;;1.20;76.50;;;;;;5132774;28;20042;-69
2022/03/21 04:42:29;;;;;;;1.63;0.95;;;1.20;76.50;;;;;;5133101;28;20475;-70
2022/03/21 04:44:54;;;;;;;2.95;1.20;;;1.20;76.60;;;;;;5132902;28;20046;-69
2022/03/21 04:47:21;;;;;;;2.03;1.13;;;1.20;76.60;;;;;;5097587;28;20039;-70
2022/03/21 04:49:48;;;;;;;2.10;1.20;;;1.20;76.60;;;;;;5133077;28;20088;-69
2022/03/21 04:52:14;;;;;;;1.85;1.10;;;1.20;76.70;;;;;;5132783;28;20058;-69
2022/03/21 04:54:40;;;;;;;2.50;1.13;;;1.20;76.60;;;;;;5132336;28;20390;-69
2022/03/21 04:57:06;;;;;;;1.75;1.02;;;1.20;76.70;;;;;;5132907;28;20035;-69
2022/03/21 04:59:33;;;;;;;2.05;1.35;;;1.10;76.70;;;;;;5132809;28;20027;-69
2022/03/21 05:01:59;;;;;;;3.60;1.60;;;1.10;76.80;;;;;;5132990;28;20058;-69
2022/03/21 05:04:26;;;;;;;2.45;1.17;;;1.10;76.80;;;;;;5132367;28;20208;-69
2022/03/21 05:06:53;;;;;;;2.47;1.40;;;1.00;76.90;;;;;;5133105;28;20164;-69
2022/03/21 05:09:20;;;;;;;2.78;1.10;;;1.00;77.00;;;;;;5132823;28;20047;-69
2022/03/21 05:11:45;;;;;;;1.88;0.93;;;1.20;77.10;;;;;;5132509;28;20409;-69
2022/03/21 05:14:11;;;;;;;1.67;1.10;;;1.10;76.90;;;;;;5112840;28;20043;-69
2022/03/21 05:16:38;;;;;;;2.40;1.25;;;1.00;77.00;;;;;;5114428;28;20075;-69
2022/03/21 05:19:04;;;;;;;1.67;1.00;;;1.10;77.00;;;;;;5133099;28;20050;-69
2022/03/21 05:21:30;;;;;;;2.47;1.27;;;1.00;76.90;;;;;;5134294;27;20036;-69
2022/03/21 05:32:02;;;;;;;1.92;1.02;;;1.00;77.00;;;;;;5119703;28;20409;-69
2022/03/21 05:37:12;;;;;;;2.13;1.10;;;1.00;77.20;;;;;;5132923;28;20055;-69
2022/03/21 05:40:31;;;;;;;2.15;1.25;;;0.90;77.10;;;;;;5136033;28;20490;-69
2022/03/21 05:42:24;;;;;;;1.85;0.98;;;0.90;77.10;;;;;;5135257;28;20096;-69
2022/03/21 05:44:50;;;;;;;2.20;1.10;;;0.90;77.20;;;;;;5135720;28;20039;-69
2022/03/21 05:47:16;;;;;;;2.30;1.20;;;0.80;77.20;;;;;;5116078;28;20118;-69
2022/03/21 05:49:41;;;;;;;1.98;1.00;;;0.80;77.30;;;;;;5117505;28;20047;-69
2022/03/21 05:52:07;;;;;;;2.05;1.13;;;0.90;77.30;;;;;;5117122;28;20043;-69
2022/03/21 05:54:33;;;;;;;1.80;0.98;;;0.80;77.20;;;;;;5136286;28;20039;-69
2022/03/21 05:56:59;;;;;;;2.22;1.42;;;0.90;77.30;;;;;;5115971;28;20096;-69
2022/03/21 06:02:04;;;;;;;2.35;1.20;;;0.80;77.20;;;;;;5135133;28;20039;-69
2022/03/21 06:04:29;;;;;;;3.35;1.73;;;0.90;77.30;;;;;;5117122;28;20050;-69
2022/03/21 06:06:55;;;;;;;2.08;1.10;;;0.80;77.30;;;;;;5135192;28;20042;-69
2022/03/21 06:09:21;;;;;;;2.08;1.10;;;0.80;77.40;;;;;;5135367;28;20043;-69
2022/03/21 06:11:48;;;;;;;2.70;1.20;;;0.80;77.40;;;;;;5135522;28;20375;-69
2022/03/21 06:14:14;;;;;;;2.03;1.17;;;0.90;77.40;;;;;;5135972;28;20130;-69
2022/03/21 06:16:40;;;;;;;2.15;1.00;;;0.80;77.40;;;;;;5135296;28;20508;-69
2022/03/21 06:19:06;;;;;;;2.30;1.15;;;0.80;77.40;;;;;;5135123;28;20130;-69
2022/03/21 06:21:31;;;;;;;1.65;1.10;;;0.90;77.40;;;;;;5135162;28;20439;-69
2022/03/21 06:23:57;;;;;;;2.15;1.00;;;1.00;77.20;;;;;;5135059;28;20047;-69
2022/03/21 06:26:23;;;;;;;2.28;1.10;;;1.00;77.20;;;;;;5135253;28;20066;-69
2022/03/21 06:28:49;;;;;;;2.03;1.10;;;1.00;77.10;;;;;;5135121;28;20043;-69
2022/03/21 06:31:15;;;;;;;2.53;1.38;;;1.10;77.20;;;;;;5135219;28;20154;-69
2022/03/21 06:33:41;;;;;;;2.58;1.20;;;1.20;77.10;;;;;;5134135;27;20039;-69
2022/03/21 06:36:07;;;;;;;1.73;0.98;;;1.20;76.90;;;;;;5115590;28;20419;-69
2022/03/21 06:38:34;;;;;;;1.70;1.00;;;1.30;76.90;;;;;;5134679;28;20442;-69
2022/03/21 06:41:00;;;;;;;1.80;1.00;;;1.40;76.80;;;;;;5135039;28;20132;-69
2022/03/21 06:43:27;;;;;;;2.45;1.05;;;1.40;76.70;;;;;;5135277;28;20478;-69
2022/03/21 06:45:55;;;;;;;2.38;1.20;;;1.50;76.70;;;;;;5098783;28;20136;-69
2022/03/21 06:48:22;;;;;;;1.88;1.08;;;1.60;76.70;;;;;;5134971;28;20043;-69
2022/03/21 06:50:49;;;;;;;1.70;0.90;;;1.70;76.60;;;;;;5116786;28;20130;-69
2022/03/21 06:53:16;;;;;;;1.73;1.00;;;1.80;76.50;;;;;;5134682;28;20482;-69
2022/03/21 06:55:44;;;;;;;1.50;0.90;;;1.80;76.40;;;;;;5099133;28;20477;-69
2022/03/21 06:58:11;;;;;;;1.42;0.90;;;1.90;76.30;;;;;;5134477;28;20043;-69
2022/03/21 07:00:39;;;;;;;1.75;0.90;;;2.00;76.30;;;;;;5134422;28;20077;-70
2022/03/21 07:03:05;;;;;;;2.08;0.93;;;2.10;76.30;;;;;;5134395;28;20389;-69
2022/03/21 07:05:31;;;;;;;2.17;0.77;;;2.10;76.20;;;;;;5134257;28;20043;-69
2022/03/21 07:07:57;;;;;;;2.08;1.05;;;2.20;76.10;;;;;;5134289;28;20039;-69
2022/03/21 07:10:23;;;;;;;1.58;1.00;;;2.30;76.10;;;;;;5134448;28;20091;-70
2022/03/21 07:12:48;;;;;;;2.38;1.08;;;2.40;76.10;;;;;;5116043;28;20046;-70
2022/03/21 07:15:15;;;;;;;2.30;1.00;;;2.60;76.10;;;;;;5133918;28;20036;-70
2022/03/21 07:17:42;;;;;;;2.25;1.08;;;2.80;75.90;;;;;;5133663;28;20538;-70
2022/03/21 07:20:10;;;;;;;2.10;1.00;;;2.90;75.80;;;;;;5133927;28;20393;-70
2022/03/21 07:22:36;;;;;;;4.00;1.60;;;3.00;75.60;;;;;;5133748;28;20072;-69
2022/03/21 07:25:02;;;;;;;2.08;1.30;;;3.20;75.60;;;;;;5116227;28;20066;-69
2022/03/21 07:27:28;;;;;;;3.95;1.73;;;3.30;75.40;;;;;;5115790;28;20054;-70
2022/03/21 07:29:53;;;;;;;2.30;1.40;;;3.40;75.10;;;;;;5134363;28;20039;-69
2022/03/21 07:32:19;;;;;;;3.55;1.60;;;3.70;75.10;;;;;;5134128;28;20038;-72
2022/03/21 07:34:45;;;;;;;2.50;1.33;;;3.80;74.90;;;;;;5098487;28;20043;-70
2022/03/21 07:37:10;;;;;;;2.08;1.23;;;4.00;74.90;;;;;;5133941;28;20042;-71
2022/03/21 07:39:37;;;;;;;2.58;1.33;;;4.20;74.80;;;;;;5114083;28;20036;-74
2022/03/21 07:42:04;;;;;;;2.65;1.20;;;4.30;74.70;;;;;;5098983;28;20394;-72
2022/03/21 07:49:55;;;;;;;4.13;1.85;;;4.80;74.60;;;;;;5113803;28;20051;-73
2022/03/21 07:52:22;;;;;;;1.75;1.13;;;4.90;74.50;;;;;;5115648;28;20100;-72
2022/03/21 07:54:53;;;;;;;3.35;1.75;;;5.00;74.40;;;;;;5133580;28;20057;-71
2022/03/21 07:57:22;;;;;;;2.45;1.38;;;5.20;74.40;;;;;;5133934;28;20039;-71
2022/03/21 07:59:47;;;;;;;2.88;1.42;;;5.40;74.30;;;;;;5097984;28;20372;-72
2022/03/21 08:02:13;;;;;;;3.08;1.58;;;5.50;74.20;;;;;;5098639;28;20084;-71
2022/03/21 08:04:39;;;;;;;2.10;1.20;;;5.70;74.20;;;;;;5113860;28;20039;-72
2022/03/21 08:07:04;;;;;;;2.97;1.40;;;5.80;74.20;;;;;;5098796;28;20481;-70
2022/03/21 08:09:30;;;;;;;3.10;1.42;;;6.00;74.10;;;;;;5133217;28;20039;-69
2022/03/21 08:11:57;;;;;;;2.53;1.38;;;6.20;74.20;;;;;;5113396;28;20558;-70
2022/03/21 08:14:24;;;;;;;2.70;1.38;;;6.30;74.00;;;;;;5133395;28;20043;-72
2022/03/21 08:16:51;;;;;;;2.92;1.67;;;6.50;73.90;;;;;;5133882;28;20832;-72
2022/03/21 08:19:18;;;;;;;3.90;1.77;;;6.70;73.90;;;;;;5115027;28;20047;-70
2022/03/21 08:21:43;;;;;;;2.55;1.60;;;6.80;73.80;;;;;;5133760;28;20043;-71
2022/03/21 08:24:12;;;;;;;2.58;1.30;;;7.00;73.70;;;;;;5114593;28;20042;-71
2022/03/21 08:26:38;;;;;;;1.95;1.17;;;7.20;73.60;;;;;;5133157;28;20053;-72
2022/03/21 08:29:04;;;;;;;3.17;1.58;;;7.40;73.50;;;;;;5113758;28;20031;-72
2022/03/21 08:31:29;;;;;;;2.92;1.52;;;7.60;73.40;;;;;;5133771;28;20122;-71
2022/03/21 08:33:55;;;;;;;2.38;1.35;;;7.70;73.30;;;;;;5115427;28;20043;-72
2022/03/21 08:36:21;;;;;;;3.33;1.65;;;7.90;73.30;;;;;;5133012;28;20050;-72
2022/03/21 08:38:47;;;;;;;2.80;1.50;;;8.00;73.20;;;;;;5114709;28;20067;-72
2022/03/21 08:41:13;;;;;;;3.85;1.77;;;8.20;73.10;;;;;;5133534;28;20040;-72
2022/03/21 08:43:39;;;;;;;3.35;1.60;;;8.30;73.00;;;;;;5133007;28;20035;-72
2022/03/21 08:46:05;;;;;;;2.20;1.20;;;8.50;72.90;;;;;;5133032;28;20172;-72
2022/03/21 08:51:06;;;;;;;3.85;1.90;;;8.70;72.70;;;;;;5133191;28;20142;-72
2022/03/21 08:53:32;;;;;;;3.72;1.98;;;8.90;72.70;;;;;;5115658;28;20035;-73
2022/03/21 08:56:01;;;;;;;4.25;1.92;;;9.10;72.70;;;;;;5113100;28;20040;-73
2022/03/21 08:58:27;;;;;;;2.75;1.70;;;9.20;72.60;;;;;;5118177;28;20039;-73
2022/03/21 09:00:53;;;;;;;3.20;1.67;;;9.40;72.50;;;;;;5136383;28;20501;-70
2022/03/21 09:03:20;;;;;;;3.88;2.00;;;9.40;72.30;;;;;;5099550;28;20032;-70
2022/03/21 09:05:46;;;;;;;3.55;1.92;;;9.60;72.20;;;;;;5099457;28;20048;-69
2022/03/21 09:08:12;;;;;;;2.97;1.65;;;9.80;72.10;;;;;;5072719;28;20045;-69
2022/03/21 09:10:38;;;;;;;2.72;1.50;;;9.80;72.00;;;;;;5055992;28;20117;-69
2022/03/21 09:13:05;;;;;;;2.58;1.50;;;10.00;71.90;;;;;;5073123;28;20072;-69
2022/03/21 09:15:31;;;;;;;3.85;1.77;;;10.10;71.90;;;;;;5072878;28;20094;-69
2022/03/21 09:17:57;;;;;;;3.05;1.75;;;10.20;71.80;;;;;;5072795;28;20040;-69
2022/03/21 09:20:23;;;;;;;2.78;1.50;;;10.40;71.70;;;;;;5072702;28;20044;-69
2022/03/21 09:22:49;;;;;;;3.63;1.40;;;10.50;71.50;;;;;;5072563;28;20052;-71
2022/03/21 09:25:17;;;;;;;2.22;1.40;;;10.60;71.30;;;;;;5039111;28;20049;-68
2022/03/21 09:27:42;;;;;;;2.53;1.40;;;10.70;71.30;;;;;;5056246;28;20051;-70
2022/03/21 09:30:10;;;;;;;2.83;1.52;;;10.80;71.20;;;;;;5072573;28;20040;-70
2022/03/21 09:32:36;;;;;;;1.80;1.40;;;10.90;71.10;;;;;;5055913;28;20075;-72
2022/03/21 09:35:02;;;;;;;3.65;1.90;;;10.90;70.90;;;;;;5073024;28;20064;-69
2022/03/21 09:37:28;;;;;;;3.35;1.63;;;11.00;70.90;;;;;;5072214;28;20060;-71
2022/03/21 09:39:55;;;;;;;3.72;1.60;;;11.10;70.70;;;;;;5119812;28;20446;-70
2022/03/21 09:42:21;;;;;;;2.50;1.50;;;11.20;70.80;;;;;;5115574;28;20107;-72
2022/03/21 09:44:53;;;;;;;2.53;1.42;;;11.30;70.70;;;;;;5117752;28;20466;-72
2022/03/21 09:50:04;;;;;;;1.80;1.38;;;11.50;70.40;;;;;;5119447;28;20038;-71
2022/03/21 09:52:30;;;;;;;3.13;1.67;;;11.60;70.30;;;;;;5083225;28;20130;-72
2022/03/21 09:54:56;;;;;;;2.60;1.63;;;11.70;70.30;;;;;;5100367;28;20035;-72
2022/03/21 09:57:22;;;;;;;4.00;1.50;;;11.70;70.20;;;;;;5119202;28;20478;-72
2022/03/21 09:59:49;;;;;;;2.65;1.58;;;11.80;70.00;;;;;;5100160;28;20039;-72
2022/03/21 10:02:17;;;;;;;1.90;1.20;;;11.80;69.80;;;;;;5117216;28;20035;-69
2022/03/21 10:04:43;;;;;;;2.60;1.65;;;11.90;69.80;;;;;;5083214;28;20036;-70
2022/03/21 10:07:11;;;;;;;1.77;1.25;;;12.00;69.70;;;;;;5097373;28;20512;-70
2022/03/21 10:09:36;;;;;;;2.47;1.50;;;12.10;69.60;;;;;;5115036;28;20039;-71
2022/03/21 10:12:08;;;;;;;3.33;1.60;;;12.10;69.50;;;;;;5135112;28;20050;-71
2022/03/21 10:14:36;;;;;;;2.95;1.55;;;12.30;69.40;;;;;;5135127;28;20550;-71
2022/03/21 10:17:13;;;;;;;3.00;1.67;;;12.40;69.30;;;;;;5134922;28;20482;-71
2022/03/21 10:19:44;;;;;;;2.15;1.38;;;12.40;68.90;;;;;;5135096;28;20042;-72
2022/03/21 10:22:13;;;;;;;3.22;1.80;;;12.50;68.90;;;;;;5135042;28;20498;-71
2022/03/21 10:24:42;;;;;;;3.22;1.90;;;12.50;68.70;;;;;;5100029;28;20043;-70
2022/03/21 10:27:28;;;;;;;3.03;1.55;;;12.50;68.70;;;;;;5117150;28;20122;-70
2022/03/21 10:30:00;;;;;;;3.85;1.83;;;12.60;68.70;;;;;;5135096;28;20087;-71
2022/03/21 10:32:38;;;;;;;3.45;1.75;;;12.80;68.60;;;;;;5134747;28;20039;-70
2022/03/21 10:35:09;;;;;;;3.30;2.08;;;12.80;68.50;;;;;;5116206;28;20137;-71
2022/03/21 10:37:46;;;;;;;4.18;1.75;;;12.90;68.30;;;;;;5134726;28;20047;-70
2022/03/21 10:40:24;;;;;;;2.67;1.58;;;12.90;68.10;;;;;;5116485;28;20047;-68
2022/03/21 10:42:55;;;;;;;3.17;1.70;;;13.00;67.90;;;;;;5135396;28;20043;-68
2022/03/21 10:45:23;;;;;;;3.90;1.83;;;13.10;67.80;;;;;;5135013;28;20031;-70
2022/03/21 10:47:50;;;;;;;3.33;1.70;;;13.20;67.70;;;;;;5099435;28;20039;-70
2022/03/21 10:50:27;;;;;;;2.95;1.80;;;13.30;67.60;;;;;;5134461;28;20039;-70
2022/03/21 10:53:32;;;;;;;3.90;2.20;;;13.40;67.40;;;;;;5116273;28;20038;-69
2022/03/21 10:56:07;;;;;;;2.70;1.77;;;13.50;67.20;;;;;;5122653;28;20042;-68
2022/03/21 10:58:43;;;;;;;3.65;1.90;;;13.60;67.00;;;;;;5135231;28;20039;-71
2022/03/21 11:01:22;;;;;;;4.57;2.13;;;13.70;66.80;;;;;;5134417;28;20039;-68
2022/03/21 11:03:50;;;;;;;3.78;2.03;;;13.90;67.20;;;;;;5134943;28;20046;-71
2022/03/21 11:06:17;;;;;;;3.80;2.00;;;13.90;66.30;;;;;;5116370;28;20043;-72
2022/03/21 11:08:47;;;;;;;2.40;1.55;;;14.00;66.30;;;;;;5134322;28;20494;-70
2022/03/21 11:11:13;;;;;;;3.58;1.98;;;14.10;66.20;;;;;;5134150;28;20042;-70
2022/03/21 11:13:39;;;;;;;3.90;2.33;;;14.10;65.90;;;;;;5134532;28;20043;-70
2022/03/21 11:16:05;;;;;;;4.63;2.55;;;14.20;65.80;;;;;;5134271;28;20070;-68
2022/03/21 11:18:32;;;;;;;3.38;1.88;;;14.30;65.90;;;;;;5114135;28;20039;-70
2022/03/21 11:20:59;;;;;;;3.92;2.28;;;14.40;65.60;;;;;;5134237;28;20046;-70
2022/03/21 11:23:26;;;;;;;3.60;2.00;;;14.50;65.50;;;;;;5134175;28;20537;-70
2022/03/21 11:26:01;;;;;;;3.30;1.90;;;14.60;65.20;;;;;;5133985;28;20040;-70
2022/03/21 11:28:54;;;;;;;3.45;2.00;;;14.60;65.00;;;;;;5134044;28;20085;-71
2022/03/21 11:31:56;;;;;;;3.90;2.42;;;14.70;65.00;;;;;;5116802;28;20054;-70
2022/03/21 11:34:46;;;;;;;2.97;1.95;;;14.80;64.80;;;;;;5121113;28;20042;-71
2022/03/21 11:37:29;;;;;;;2.35;1.52;;;14.80;64.70;;;;;;5133715;28;20043;-68
2022/03/21 11:40:26;;;;;;;3.30;1.92;;;15.00;64.60;;;;;;5134348;28;20043;-68
2022/03/21 11:43:06;;;;;;;2.90;1.73;;;15.10;64.40;;;;;;5113117;28;20031;-69
2022/03/21 11:45:34;;;;;;;3.15;1.90;;;15.20;64.20;;;;;;5100076;28;20039;-68
2022/03/21 11:48:33;;;;;;;2.70;1.50;;;15.30;64.10;;;;;;5134207;28;20542;-68
2022/03/21 11:51:21;;;;;;;3.40;1.80;;;15.40;63.90;;;;;;5115290;28;20055;-69
2022/03/21 11:53:49;;;;;;;3.10;2.10;;;15.50;63.80;;;;;;5101388;28;20039;-68
2022/03/21 11:56:17;;;;;;;4.35;2.22;;;15.60;63.60;;;;;;5133683;28;20045;-68
2022/03/21 11:58:46;;;;;;;3.80;2.03;;;15.60;63.40;;;;;;5134118;28;20039;-68
2022/03/21 12:01:24;;;;;;;4.85;2.85;;;15.70;63.40;;;;;;5133415;28;20561;-69
2022/03/21 12:03:50;;;;;;;3.33;1.98;;;15.70;63.10;;;;;;5112129;28;20039;-71
2022/03/21 12:06:26;;;;;;;4.10;2.28;;;15.70;63.00;;;;;;5115928;28;20451;-72
2022/03/21 12:08:56;;;;;;;5.68;2.72;;;15.90;63.00;;;;;;5133546;28;20199;-72
2022/03/21 12:11:58;;;;;;;3.78;2.28;;;15.90;62.80;;;;;;5113709;28;20173;-72
2022/03/21 12:14:29;;;;;;;3.55;2.20;;;16.00;62.50;;;;;;5103538;28;20037;-70
2022/03/21 12:17:28;;;;;;;2.65;1.77;;;16.20;62.50;;;;;;5133181;28;20039;-72
2022/03/21 12:19:58;;;;;;;2.53;1.65;;;16.30;62.30;;;;;;5120181;28;20059;-71
2022/03/21 12:22:33;;;;;;;4.05;2.38;;;16.30;61.90;;;;;;5133409;28;20464;-72
2022/03/21 12:25:10;;;;;;;4.05;2.35;;;16.40;61.90;;;;;;5133595;28;20699;-74
2022/03/21 12:27:48;;;;;;;2.65;1.88;;;16.60;62.00;;;;;;5115837;28;20051;-73
2022/03/21 12:30:35;;;;;;;3.42;1.88;;;16.70;61.80;;;;;;5114212;28;20032;-72
2022/03/21 12:33:22;;;;;;;3.13;2.03;;;16.80;61.60;;;;;;5118198;28;20095;-69
2022/03/21 12:35:56;;;;;;;3.03;1.90;;;16.90;61.50;;;;;;5115107;28;20035;-70
2022/03/21 12:38:25;;;;;;;3.17;1.75;;;17.10;61.40;;;;;;5079380;28;20039;-70
2022/03/21 12:40:54;;;;;;;3.15;2.13;;;17.00;61.30;;;;;;5132960;28;20031;-70
2022/03/21 12:43:25;;;;;;;4.43;2.45;;;17.10;61.30;;;;;;5115292;28;20046;-73
2022/03/21 12:45:58;;;;;;;3.92;2.08;;;17.10;61.20;;;;;;5115562;28;20050;-73
2022/03/21 12:48:29;;;;;;;3.90;2.10;;;17.20;61.20;;;;;;5114823;28;20397;-70
2022/03/21 12:50:55;;;;;;;3.15;1.98;;;17.40;61.10;;;;;;5114873;28;20047;-72
2022/03/21 12:53:22;;;;;;;3.08;2.08;;;17.30;61.00;;;;;;5132630;28;20126;-72
2022/03/21 12:56:03;;;;;;;3.95;2.45;;;17.30;61.00;;;;;;5133170;28;20122;-71
2022/03/21 12:58:29;;;;;;;4.53;2.70;;;17.40;61.10;;;;;;5133499;28;20037;-72
2022/03/21 13:00:56;;;;;;;3.63;2.15;;;17.50;61.00;;;;;;5133218;28;20086;-73
2022/03/21 13:03:23;;;;;;;3.13;2.00;;;17.50;61.00;;;;;;5115178;28;20134;-73
2022/03/21 13:11:34;;;;;;;4.05;2.53;;;17.70;60.80;;;;;;5116445;28;20073;-71
2022/03/21 13:14:04;;;;;;;4.00;2.20;;;17.80;60.70;;;;;;5133062;28;20039;-70
2022/03/21 13:16:38;;;;;;;6.18;2.78;;;17.70;60.60;;;;;;5114455;28;20043;-72
2022/03/21 13:19:06;;;;;;;4.93;2.70;;;17.70;60.80;;;;;;5132541;28;20083;-73
2022/03/21 13:21:35;;;;;;;3.67;2.35;;;17.80;60.90;;;;;;5133097;28;20024;-73
2022/03/21 13:24:01;;;;;;;5.35;2.50;;;17.70;60.80;;;;;;5133823;28;20572;-74
2022/03/21 13:26:28;;;;;;;4.35;2.55;;;17.80;60.70;;;;;;5097920;28;20047;-71
2022/03/21 13:29:04;;;;;;;4.15;2.42;;;17.90;60.60;;;;;;5132408;28;20053;-71
2022/03/21 13:31:30;;;;;;;2.58;1.88;;;17.80;60.40;;;;;;5112579;28;20048;-71